sensor_id;sensor_type;location;lat;lon;timestamp;P1;durP1;ratioP1;P2;durP2;ratioP2
54123;SDS011;55741;53.252;5.788;2023-04-25T00:01:33;23.13;;;4.32;;
54123;SDS011;55741;53.252;5.788;2023-04-25T00:04:00;26.67;;;4.80;;
54123;SDS011;55741;53.252;5.788;2023-04-25T00:06:26;18.40;;;4.72;;
54123;SDS011;55741;53.252;5.788;2023-04-25T00:08:52;15.48;;;3.58;;
54123;SDS011;55741;53.252;5.788;2023-04-25T00:11:18;27.73;;;3.97;;
54123;SDS011;55741;53.252;5.788;2023-04-25T00:13:44;23.75;;;4.75;;
54123;SDS011;55741;53.252;5.788;2023-04-25T00:16:11;19.65;;;4.07;;
54123;SDS011;55741;53.252;5.788;2023-04-25T00:18:41;23.50;;;4.20;;
54123;SDS011;55741;53.252;5.788;2023-04-25T00:21:07;21.58;;;4.15;;
54123;SDS011;55741;53.252;5.788;2023-04-25T00:23:33;24.92;;;4.53;;
54123;SDS011;55741;53.252;5.788;2023-04-25T00:26:01;17.05;;;3.95;;
54123;SDS011;55741;53.252;5.788;2023-04-25T00:28:27;24.67;;;4.03;;
54123;SDS011;55741;53.252;5.788;2023-04-25T00:30:53;17.75;;;4.35;;
54123;SDS011;55741;53.252;5.788;2023-04-25T00:33:19;17.30;;;3.63;;
54123;SDS011;55741;53.252;5.788;2023-04-25T00:35:45;18.48;;;3.72;;
54123;SDS011;55741;53.252;5.788;2023-04-25T00:38:11;25.10;;;4.28;;
54123;SDS011;55741;53.252;5.788;2023-04-25T00:40:37;26.55;;;4.18;;
54123;SDS011;55741;53.252;5.788;2023-04-25T00:43:02;28.85;;;4.75;;
54123;SDS011;55741;53.252;5.788;2023-04-25T00:45:29;25.05;;;4.32;;
54123;SDS011;55741;53.252;5.788;2023-04-25T00:47:55;19.92;;;3.38;;
54123;SDS011;55741;53.252;5.788;2023-04-25T00:50:21;22.05;;;4.00;;
54123;SDS011;55741;53.252;5.788;2023-04-25T00:52:48;22.80;;;4.57;;
54123;SDS011;55741;53.252;5.788;2023-04-25T00:55:14;25.38;;;4.28;;
54123;SDS011;55741;53.252;5.788;2023-04-25T00:57:42;25.05;;;4.22;;
54123;SDS011;55741;53.252;5.788;2023-04-25T01:00:08;34.88;;;4.35;;
54123;SDS011;55741;53.252;5.788;2023-04-25T01:02:36;27.20;;;3.97;;
54123;SDS011;55741;53.252;5.788;2023-04-25T01:05:02;21.92;;;4.40;;
54123;SDS011;55741;53.252;5.788;2023-04-25T01:07:29;23.60;;;4.88;;
54123;SDS011;55741;53.252;5.788;2023-04-25T01:09:55;21.30;;;4.53;;
54123;SDS011;55741;53.252;5.788;2023-04-25T01:12:22;18.80;;;4.82;;
54123;SDS011;55741;53.252;5.788;2023-04-25T01:14:48;16.60;;;3.05;;
54123;SDS011;55741;53.252;5.788;2023-04-25T01:17:14;17.45;;;4.40;;
54123;SDS011;55741;53.252;5.788;2023-04-25T01:19:41;16.00;;;3.30;;
54123;SDS011;55741;53.252;5.788;2023-04-25T01:22:07;13.15;;;2.97;;
54123;SDS011;55741;53.252;5.788;2023-04-25T01:24:35;13.40;;;3.30;;
54123;SDS011;55741;53.252;5.788;2023-04-25T01:27:02;6.55;;;1.85;;
54123;SDS011;55741;53.252;5.788;2023-04-25T01:29:28;10.18;;;2.42;;
54123;SDS011;55741;53.252;5.788;2023-04-25T01:31:54;12.32;;;2.65;;
54123;SDS011;55741;53.252;5.788;2023-04-25T01:34:20;11.15;;;2.78;;
54123;SDS011;55741;53.252;5.788;2023-04-25T01:36:49;11.60;;;2.47;;
54123;SDS011;55741;53.252;5.788;2023-04-25T01:39:16;14.40;;;3.03;;
54123;SDS011;55741;53.252;5.788;2023-04-25T01:41:43;12.02;;;2.65;;
54123;SDS011;55741;53.252;5.788;2023-04-25T01:44:10;16.83;;;3.75;;
54123;SDS011;55741;53.252;5.788;2023-04-25T01:46:36;15.95;;;3.63;;
54123;SDS011;55741;53.252;5.788;2023-04-25T01:49:02;16.13;;;4.25;;
54123;SDS011;55741;53.252;5.788;2023-04-25T01:51:28;14.30;;;3.97;;
54123;SDS011;55741;53.252;5.788;2023-04-25T01:53:55;23.30;;;3.95;;
54123;SDS011;55741;53.252;5.788;2023-04-25T01:56:22;15.90;;;3.40;;
54123;SDS011;55741;53.252;5.788;2023-04-25T01:58:49;15.82;;;3.38;;
54123;SDS011;55741;53.252;5.788;2023-04-25T02:01:15;22.13;;;3.72;;
54123;SDS011;55741;53.252;5.788;2023-04-25T02:03:41;14.27;;;3.40;;
54123;SDS011;55741;53.252;5.788;2023-04-25T02:06:08;19.95;;;3.88;;
54123;SDS011;55741;53.252;5.788;2023-04-25T02:08:34;18.17;;;5.03;;
54123;SDS011;55741;53.252;5.788;2023-04-25T02:11:00;17.42;;;3.85;;
54123;SDS011;55741;53.252;5.788;2023-04-25T02:13:25;15.20;;;2.97;;
54123;SDS011;55741;53.252;5.788;2023-04-25T02:15:51;23.50;;;4.10;;
54123;SDS011;55741;53.252;5.788;2023-04-25T02:18:17;21.52;;;3.90;;
54123;SDS011;55741;53.252;5.788;2023-04-25T02:20:43;17.67;;;3.05;;
54123;SDS011;55741;53.252;5.788;2023-04-25T02:23:09;11.27;;;2.47;;
54123;SDS011;55741;53.252;5.788;2023-04-25T02:25:35;11.63;;;2.20;;
54123;SDS011;55741;53.252;5.788;2023-04-25T02:28:01;9.55;;;2.25;;
54123;SDS011;55741;53.252;5.788;2023-04-25T02:30:26;10.77;;;2.20;;
54123;SDS011;55741;53.252;5.788;2023-04-25T02:32:52;9.05;;;2.03;;
54123;SDS011;55741;53.252;5.788;2023-04-25T02:35:18;10.30;;;3.17;;
54123;SDS011;55741;53.252;5.788;2023-04-25T02:37:44;15.02;;;2.53;;
54123;SDS011;55741;53.252;5.788;2023-04-25T02:40:10;18.75;;;2.67;;
54123;SDS011;55741;53.252;5.788;2023-04-25T02:42:36;15.00;;;3.38;;
54123;SDS011;55741;53.252;5.788;2023-04-25T02:45:02;19.05;;;3.47;;
54123;SDS011;55741;53.252;5.788;2023-04-25T02:47:28;15.10;;;3.45;;
54123;SDS011;55741;53.252;5.788;2023-04-25T02:49:54;26.58;;;4.55;;
54123;SDS011;55741;53.252;5.788;2023-04-25T02:52:20;15.32;;;3.45;;
54123;SDS011;55741;53.252;5.788;2023-04-25T02:54:46;25.58;;;3.90;;
54123;SDS011;55741;53.252;5.788;2023-04-25T02:57:12;20.30;;;4.97;;
54123;SDS011;55741;53.252;5.788;2023-04-25T02:59:39;21.50;;;4.07;;
54123;SDS011;55741;53.252;5.788;2023-04-25T03:02:05;16.08;;;3.13;;
54123;SDS011;55741;53.252;5.788;2023-04-25T03:04:31;22.50;;;3.38;;
54123;SDS011;55741;53.252;5.788;2023-04-25T03:06:58;22.80;;;4.70;;
54123;SDS011;55741;53.252;5.788;2023-04-25T03:09:24;17.60;;;3.20;;
54123;SDS011;55741;53.252;5.788;2023-04-25T03:11:50;19.50;;;3.80;;
54123;SDS011;55741;53.252;5.788;2023-04-25T03:14:16;12.73;;;2.72;;
54123;SDS011;55741;53.252;5.788;2023-04-25T03:16:41;11.68;;;2.55;;
54123;SDS011;55741;53.252;5.788;2023-04-25T03:19:07;18.92;;;2.67;;
54123;SDS011;55741;53.252;5.788;2023-04-25T03:21:33;10.20;;;2.00;;
54123;SDS011;55741;53.252;5.788;2023-04-25T03:24:01;17.33;;;2.60;;
54123;SDS011;55741;53.252;5.788;2023-04-25T03:26:28;10.35;;;2.00;;
54123;SDS011;55741;53.252;5.788;2023-04-25T03:28:54;7.95;;;1.90;;
54123;SDS011;55741;53.252;5.788;2023-04-25T03:31:20;14.32;;;2.10;;
54123;SDS011;55741;53.252;5.788;2023-04-25T03:33:47;15.02;;;3.22;;
54123;SDS011;55741;53.252;5.788;2023-04-25T03:36:12;15.55;;;3.15;;
54123;SDS011;55741;53.252;5.788;2023-04-25T03:38:38;15.98;;;3.38;;
54123;SDS011;55741;53.252;5.788;2023-04-25T03:41:06;15.55;;;2.38;;
54123;SDS011;55741;53.252;5.788;2023-04-25T03:43:32;14.57;;;2.47;;
54123;SDS011;55741;53.252;5.788;2023-04-25T03:45:58;12.82;;;2.60;;
54123;SDS011;55741;53.252;5.788;2023-04-25T03:48:24;17.80;;;3.00;;
54123;SDS011;55741;53.252;5.788;2023-04-25T03:50:51;10.88;;;2.20;;
54123;SDS011;55741;53.252;5.788;2023-04-25T03:53:17;13.95;;;2.60;;
54123;SDS011;55741;53.252;5.788;2023-04-25T03:55:43;12.60;;;2.90;;
54123;SDS011;55741;53.252;5.788;2023-04-25T03:58:09;14.82;;;2.58;;
54123;SDS011;55741;53.252;5.788;2023-04-25T04:00:36;15.63;;;2.75;;
54123;SDS011;55741;53.252;5.788;2023-04-25T04:03:02;9.00;;;2.47;;
54123;SDS011;55741;53.252;5.788;2023-04-25T04:05:28;24.50;;;3.65;;
54123;SDS011;55741;53.252;5.788;2023-04-25T04:07:54;13.70;;;2.40;;
54123;SDS011;55741;53.252;5.788;2023-04-25T04:10:20;17.77;;;3.10;;
54123;SDS011;55741;53.252;5.788;2023-04-25T04:12:46;14.38;;;3.83;;
54123;SDS011;55741;53.252;5.788;2023-04-25T04:15:12;16.83;;;2.90;;
54123;SDS011;55741;53.252;5.788;2023-04-25T04:17:38;15.40;;;2.70;;
54123;SDS011;55741;53.252;5.788;2023-04-25T04:20:04;12.23;;;2.58;;
54123;SDS011;55741;53.252;5.788;2023-04-25T04:22:31;8.32;;;1.70;;
54123;SDS011;55741;53.252;5.788;2023-04-25T04:24:57;11.80;;;2.38;;
54123;SDS011;55741;53.252;5.788;2023-04-25T04:27:23;6.80;;;1.90;;
54123;SDS011;55741;53.252;5.788;2023-04-25T04:29:49;12.02;;;2.20;;
54123;SDS011;55741;53.252;5.788;2023-04-25T04:32:17;11.20;;;2.65;;
54123;SDS011;55741;53.252;5.788;2023-04-25T04:34:43;13.48;;;2.45;;
54123;SDS011;55741;53.252;5.788;2023-04-25T04:37:09;9.65;;;2.30;;
54123;SDS011;55741;53.252;5.788;2023-04-25T04:39:36;9.82;;;2.50;;
54123;SDS011;55741;53.252;5.788;2023-04-25T04:42:02;8.93;;;2.08;;
54123;SDS011;55741;53.252;5.788;2023-04-25T04:44:29;14.65;;;2.83;;
54123;SDS011;55741;53.252;5.788;2023-04-25T04:46:58;12.60;;;2.70;;
54123;SDS011;55741;53.252;5.788;2023-04-25T04:49:24;16.52;;;2.47;;
54123;SDS011;55741;53.252;5.788;2023-04-25T04:51:50;13.23;;;2.13;;
54123;SDS011;55741;53.252;5.788;2023-04-25T04:54:16;9.35;;;2.05;;
54123;SDS011;55741;53.252;5.788;2023-04-25T04:56:42;11.43;;;2.63;;
54123;SDS011;55741;53.252;5.788;2023-04-25T04:59:08;15.45;;;2.60;;
54123;SDS011;55741;53.252;5.788;2023-04-25T05:01:36;16.55;;;2.35;;
54123;SDS011;55741;53.252;5.788;2023-04-25T05:04:02;17.33;;;2.80;;
54123;SDS011;55741;53.252;5.788;2023-04-25T05:06:28;17.38;;;2.63;;
54123;SDS011;55741;53.252;5.788;2023-04-25T05:08:55;12.23;;;2.17;;
54123;SDS011;55741;53.252;5.788;2023-04-25T05:11:21;15.48;;;2.60;;
54123;SDS011;55741;53.252;5.788;2023-04-25T05:13:49;12.63;;;2.42;;
54123;SDS011;55741;53.252;5.788;2023-04-25T05:16:16;18.35;;;2.47;;
54123;SDS011;55741;53.252;5.788;2023-04-25T05:18:42;15.13;;;2.60;;
54123;SDS011;55741;53.252;5.788;2023-04-25T05:21:08;12.80;;;3.13;;
54123;SDS011;55741;53.252;5.788;2023-04-25T05:23:33;17.33;;;2.65;;
54123;SDS011;55741;53.252;5.788;2023-04-25T05:25:59;15.15;;;2.63;;
54123;SDS011;55741;53.252;5.788;2023-04-25T05:28:25;13.50;;;2.60;;
54123;SDS011;55741;53.252;5.788;2023-04-25T05:30:51;14.10;;;3.35;;
54123;SDS011;55741;53.252;5.788;2023-04-25T05:33:17;14.48;;;3.05;;
54123;SDS011;55741;53.252;5.788;2023-04-25T05:35:44;16.98;;;2.25;;
54123;SDS011;55741;53.252;5.788;2023-04-25T05:38:10;14.40;;;2.67;;
54123;SDS011;55741;53.252;5.788;2023-04-25T05:40:36;14.02;;;3.15;;
54123;SDS011;55741;53.252;5.788;2023-04-25T05:43:02;9.60;;;1.83;;
54123;SDS011;55741;53.252;5.788;2023-04-25T05:45:28;5.20;;;1.52;;
54123;SDS011;55741;53.252;5.788;2023-04-25T05:47:53;9.80;;;1.70;;
54123;SDS011;55741;53.252;5.788;2023-04-25T05:50:19;4.80;;;1.23;;
54123;SDS011;55741;53.252;5.788;2023-04-25T05:52:45;5.63;;;1.40;;
54123;SDS011;55741;53.252;5.788;2023-04-25T05:55:11;12.55;;;2.38;;
54123;SDS011;55741;53.252;5.788;2023-04-25T05:57:37;8.75;;;1.90;;
54123;SDS011;55741;53.252;5.788;2023-04-25T06:00:07;5.28;;;1.55;;
54123;SDS011;55741;53.252;5.788;2023-04-25T06:02:39;8.65;;;1.83;;
54123;SDS011;55741;53.252;5.788;2023-04-25T06:05:05;7.97;;;1.92;;
54123;SDS011;55741;53.252;5.788;2023-04-25T06:07:31;11.63;;;2.13;;
54123;SDS011;55741;53.252;5.788;2023-04-25T06:09:57;9.18;;;2.28;;
54123;SDS011;55741;53.252;5.788;2023-04-25T06:12:23;12.27;;;2.15;;
54123;SDS011;55741;53.252;5.788;2023-04-25T06:14:49;10.27;;;2.55;;
54123;SDS011;55741;53.252;5.788;2023-04-25T06:17:14;12.48;;;2.33;;
54123;SDS011;55741;53.252;5.788;2023-04-25T06:19:40;16.02;;;2.50;;
54123;SDS011;55741;53.252;5.788;2023-04-25T06:22:07;11.95;;;2.42;;
54123;SDS011;55741;53.252;5.788;2023-04-25T06:24:33;14.57;;;2.28;;
54123;SDS011;55741;53.252;5.788;2023-04-25T06:26:59;13.07;;;2.17;;
54123;SDS011;55741;53.252;5.788;2023-04-25T06:29:25;14.70;;;2.15;;
54123;SDS011;55741;53.252;5.788;2023-04-25T06:31:51;10.02;;;3.30;;
54123;SDS011;55741;53.252;5.788;2023-04-25T06:34:18;14.02;;;2.38;;
54123;SDS011;55741;53.252;5.788;2023-04-25T06:36:43;9.57;;;1.73;;
54123;SDS011;55741;53.252;5.788;2023-04-25T06:39:09;8.48;;;2.13;;
54123;SDS011;55741;53.252;5.788;2023-04-25T06:41:36;13.05;;;2.30;;
54123;SDS011;55741;53.252;5.788;2023-04-25T06:44:02;10.90;;;2.10;;
54123;SDS011;55741;53.252;5.788;2023-04-25T06:46:28;13.70;;;2.15;;
54123;SDS011;55741;53.252;5.788;2023-04-25T06:48:53;10.48;;;2.20;;
54123;SDS011;55741;53.252;5.788;2023-04-25T06:51:20;12.10;;;2.15;;
54123;SDS011;55741;53.252;5.788;2023-04-25T06:53:46;14.07;;;2.10;;
54123;SDS011;55741;53.252;5.788;2023-04-25T06:56:11;12.27;;;2.63;;
54123;SDS011;55741;53.252;5.788;2023-04-25T06:58:37;10.98;;;2.05;;
54123;SDS011;55741;53.252;5.788;2023-04-25T07:01:03;12.10;;;2.40;;
54123;SDS011;55741;53.252;5.788;2023-04-25T07:03:31;10.32;;;2.33;;
54123;SDS011;55741;53.252;5.788;2023-04-25T07:05:56;13.48;;;2.53;;
54123;SDS011;55741;53.252;5.788;2023-04-25T07:08:22;9.98;;;1.70;;
54123;SDS011;55741;53.252;5.788;2023-04-25T07:10:48;8.95;;;1.80;;
54123;SDS011;55741;53.252;5.788;2023-04-25T07:13:14;12.65;;;2.15;;
54123;SDS011;55741;53.252;5.788;2023-04-25T07:15:40;10.70;;;1.98;;
54123;SDS011;55741;53.252;5.788;2023-04-25T07:18:07;12.82;;;2.92;;
54123;SDS011;55741;53.252;5.788;2023-04-25T07:20:32;15.27;;;2.70;;
54123;SDS011;55741;53.252;5.788;2023-04-25T07:22:58;12.80;;;2.90;;
54123;SDS011;55741;53.252;5.788;2023-04-25T07:25:24;15.82;;;2.88;;
54123;SDS011;55741;53.252;5.788;2023-04-25T07:27:50;13.07;;;2.55;;
54123;SDS011;55741;53.252;5.788;2023-04-25T07:30:16;15.52;;;3.08;;
54123;SDS011;55741;53.252;5.788;2023-04-25T07:32:42;11.57;;;2.85;;
54123;SDS011;55741;53.252;5.788;2023-04-25T07:35:08;14.07;;;2.67;;
54123;SDS011;55741;53.252;5.788;2023-04-25T07:37:34;9.18;;;2.10;;
54123;SDS011;55741;53.252;5.788;2023-04-25T07:40:01;13.55;;;2.60;;
54123;SDS011;55741;53.252;5.788;2023-04-25T07:42:31;9.68;;;2.17;;
54123;SDS011;55741;53.252;5.788;2023-04-25T07:44:57;15.52;;;2.30;;
54123;SDS011;55741;53.252;5.788;2023-04-25T07:47:23;13.10;;;2.47;;
54123;SDS011;55741;53.252;5.788;2023-04-25T07:49:49;14.65;;;2.30;;
54123;SDS011;55741;53.252;5.788;2023-04-25T07:52:15;11.65;;;3.03;;
54123;SDS011;55741;53.252;5.788;2023-04-25T07:54:41;10.05;;;2.40;;
54123;SDS011;55741;53.252;5.788;2023-04-25T07:57:06;8.02;;;2.13;;
54123;SDS011;55741;53.252;5.788;2023-04-25T07:59:32;10.30;;;2.10;;
54123;SDS011;55741;53.252;5.788;2023-04-25T08:01:58;11.30;;;2.00;;
54123;SDS011;55741;53.252;5.788;2023-04-25T08:04:25;9.82;;;2.08;;
54123;SDS011;55741;53.252;5.788;2023-04-25T08:06:51;12.40;;;1.90;;
54123;SDS011;55741;53.252;5.788;2023-04-25T08:09:19;14.20;;;3.30;;
54123;SDS011;55741;53.252;5.788;2023-04-25T08:11:45;6.68;;;2.00;;
54123;SDS011;55741;53.252;5.788;2023-04-25T08:14:12;10.02;;;2.05;;
54123;SDS011;55741;53.252;5.788;2023-04-25T08:16:38;9.70;;;2.78;;
54123;SDS011;55741;53.252;5.788;2023-04-25T08:19:04;10.60;;;2.67;;
54123;SDS011;55741;53.252;5.788;2023-04-25T08:21:30;12.70;;;2.55;;
54123;SDS011;55741;53.252;5.788;2023-04-25T08:23:57;11.13;;;2.33;;
54123;SDS011;55741;53.252;5.788;2023-04-25T08:26:23;13.23;;;2.80;;
54123;SDS011;55741;53.252;5.788;2023-04-25T08:28:50;10.70;;;2.28;;
54123;SDS011;55741;53.252;5.788;2023-04-25T08:31:16;9.23;;;1.85;;
54123;SDS011;55741;53.252;5.788;2023-04-25T08:33:43;7.40;;;1.85;;
54123;SDS011;55741;53.252;5.788;2023-04-25T08:36:10;7.40;;;1.98;;
54123;SDS011;55741;53.252;5.788;2023-04-25T08:38:36;7.18;;;1.98;;
54123;SDS011;55741;53.252;5.788;2023-04-25T08:41:02;10.43;;;2.05;;
54123;SDS011;55741;53.252;5.788;2023-04-25T08:43:29;10.02;;;3.05;;
54123;SDS011;55741;53.252;5.788;2023-04-25T08:45:58;13.10;;;2.30;;
54123;SDS011;55741;53.252;5.788;2023-04-25T08:48:26;12.18;;;2.78;;
54123;SDS011;55741;53.252;5.788;2023-04-25T08:50:54;9.77;;;2.13;;
54123;SDS011;55741;53.252;5.788;2023-04-25T08:53:21;9.60;;;2.13;;
54123;SDS011;55741;53.252;5.788;2023-04-25T08:55:52;12.32;;;2.25;;
54123;SDS011;55741;53.252;5.788;2023-04-25T08:58:19;10.70;;;1.85;;
54123;SDS011;55741;53.252;5.788;2023-04-25T09:00:46;12.27;;;2.00;;
54123;SDS011;55741;53.252;5.788;2023-04-25T09:03:13;11.40;;;3.45;;
54123;SDS011;55741;53.252;5.788;2023-04-25T09:05:41;10.57;;;2.13;;
54123;SDS011;55741;53.252;5.788;2023-04-25T09:08:07;12.25;;;2.25;;
54123;SDS011;55741;53.252;5.788;2023-04-25T09:10:33;10.38;;;2.50;;
54123;SDS011;55741;53.252;5.788;2023-04-25T09:13:03;13.05;;;3.10;;
54123;SDS011;55741;53.252;5.788;2023-04-25T09:15:30;11.77;;;2.70;;
54123;SDS011;55741;53.252;5.788;2023-04-25T09:17:57;11.90;;;2.25;;
54123;SDS011;55741;53.252;5.788;2023-04-25T09:20:23;9.88;;;2.53;;
54123;SDS011;55741;53.252;5.788;2023-04-25T09:23:00;10.18;;;2.20;;
54123;SDS011;55741;53.252;5.788;2023-04-25T09:25:34;12.27;;;3.33;;
54123;SDS011;55741;53.252;5.788;2023-04-25T09:28:03;8.43;;;2.30;;
54123;SDS011;55741;53.252;5.788;2023-04-25T09:30:31;13.55;;;2.20;;
54123;SDS011;55741;53.252;5.788;2023-04-25T09:33:07;9.43;;;2.20;;
54123;SDS011;55741;53.252;5.788;2023-04-25T09:35:35;10.07;;;2.42;;
54123;SDS011;55741;53.252;5.788;2023-04-25T09:38:13;11.27;;;2.88;;
54123;SDS011;55741;53.252;5.788;2023-04-25T09:40:41;15.98;;;2.60;;
54123;SDS011;55741;53.252;5.788;2023-04-25T09:43:09;11.90;;;2.63;;
54123;SDS011;55741;53.252;5.788;2023-04-25T09:45:45;11.15;;;2.30;;
54123;SDS011;55741;53.252;5.788;2023-04-25T09:48:19;7.97;;;2.25;;
54123;SDS011;55741;53.252;5.788;2023-04-25T09:53:33;13.27;;;3.53;;
54123;SDS011;55741;53.252;5.788;2023-04-25T09:56:06;15.60;;;2.50;;
54123;SDS011;55741;53.252;5.788;2023-04-25T09:58:34;14.93;;;2.83;;
54123;SDS011;55741;53.252;5.788;2023-04-25T10:01:02;15.35;;;2.60;;
54123;SDS011;55741;53.252;5.788;2023-04-25T10:03:30;8.32;;;2.20;;
54123;SDS011;55741;53.252;5.788;2023-04-25T10:05:59;10.05;;;2.30;;
54123;SDS011;55741;53.252;5.788;2023-04-25T10:08:28;9.20;;;2.28;;
54123;SDS011;55741;53.252;5.788;2023-04-25T10:11:01;12.13;;;2.75;;
54123;SDS011;55741;53.252;5.788;2023-04-25T10:13:32;13.43;;;3.28;;
54123;SDS011;55741;53.252;5.788;2023-04-25T10:15:59;14.32;;;2.60;;
54123;SDS011;55741;53.252;5.788;2023-04-25T10:18:26;9.15;;;1.80;;
54123;SDS011;55741;53.252;5.788;2023-04-25T10:20:57;16.17;;;2.65;;
54123;SDS011;55741;53.252;5.788;2023-04-25T10:23:25;10.27;;;2.10;;
54123;SDS011;55741;53.252;5.788;2023-04-25T10:25:51;10.02;;;2.10;;
54123;SDS011;55741;53.252;5.788;2023-04-25T10:28:20;11.15;;;2.13;;
54123;SDS011;55741;53.252;5.788;2023-04-25T10:31:02;13.38;;;2.58;;
54123;SDS011;55741;53.252;5.788;2023-04-25T10:33:33;14.07;;;2.90;;
54123;SDS011;55741;53.252;5.788;2023-04-25T10:36:13;15.43;;;2.92;;
54123;SDS011;55741;53.252;5.788;2023-04-25T10:38:41;13.65;;;2.38;;
54123;SDS011;55741;53.252;5.788;2023-04-25T10:41:09;15.30;;;2.40;;
54123;SDS011;55741;53.252;5.788;2023-04-25T10:46:45;9.50;;;1.73;;
54123;SDS011;55741;53.252;5.788;2023-04-25T10:49:04;7.03;;;1.75;;
54123;SDS011;55741;53.252;5.788;2023-04-25T10:51:33;8.77;;;2.28;;
54123;SDS011;55741;53.252;5.788;2023-04-25T10:54:02;7.22;;;1.80;;
54123;SDS011;55741;53.252;5.788;2023-04-25T10:56:33;9.48;;;2.00;;
54123;SDS011;55741;53.252;5.788;2023-04-25T10:59:08;10.13;;;2.40;;
54123;SDS011;55741;53.252;5.788;2023-04-25T11:01:42;9.85;;;2.53;;
54123;SDS011;55741;53.252;5.788;2023-04-25T11:04:52;11.45;;;2.55;;
54123;SDS011;55741;53.252;5.788;2023-04-25T11:07:22;11.02;;;2.05;;
54123;SDS011;55741;53.252;5.788;2023-04-25T11:09:49;5.45;;;1.60;;
54123;SDS011;55741;53.252;5.788;2023-04-25T11:12:15;10.98;;;2.20;;
54123;SDS011;55741;53.252;5.788;2023-04-25T11:14:42;11.23;;;2.65;;
54123;SDS011;55741;53.252;5.788;2023-04-25T11:17:08;8.55;;;1.85;;
54123;SDS011;55741;53.252;5.788;2023-04-25T11:19:35;10.10;;;2.30;;
54123;SDS011;55741;53.252;5.788;2023-04-25T11:22:01;14.45;;;3.63;;
54123;SDS011;55741;53.252;5.788;2023-04-25T11:24:28;10.27;;;2.63;;
54123;SDS011;55741;53.252;5.788;2023-04-25T11:26:55;6.47;;;1.98;;
54123;SDS011;55741;53.252;5.788;2023-04-25T11:29:27;7.93;;;1.50;;
54123;SDS011;55741;53.252;5.788;2023-04-25T11:31:55;11.32;;;2.65;;
54123;SDS011;55741;53.252;5.788;2023-04-25T11:34:23;12.40;;;2.17;;
54123;SDS011;55741;53.252;5.788;2023-04-25T11:36:50;11.40;;;1.90;;
54123;SDS011;55741;53.252;5.788;2023-04-25T11:39:19;9.30;;;1.95;;
54123;SDS011;55741;53.252;5.788;2023-04-25T11:41:46;12.05;;;2.10;;
54123;SDS011;55741;53.252;5.788;2023-04-25T11:44:15;11.98;;;2.60;;
54123;SDS011;55741;53.252;5.788;2023-04-25T11:46:45;12.23;;;2.60;;
54123;SDS011;55741;53.252;5.788;2023-04-25T11:49:11;10.48;;;2.22;;
54123;SDS011;55741;53.252;5.788;2023-04-25T11:51:38;9.88;;;2.40;;
54123;SDS011;55741;53.252;5.788;2023-04-25T11:54:08;8.82;;;2.30;;
54123;SDS011;55741;53.252;5.788;2023-04-25T11:56:34;13.32;;;2.72;;
54123;SDS011;55741;53.252;5.788;2023-04-25T11:59:03;8.07;;;1.83;;
54123;SDS011;55741;53.252;5.788;2023-04-25T12:01:31;13.52;;;2.22;;
54123;SDS011;55741;53.252;5.788;2023-04-25T12:03:58;9.55;;;2.05;;
54123;SDS011;55741;53.252;5.788;2023-04-25T12:06:37;9.43;;;2.25;;
54123;SDS011;55741;53.252;5.788;2023-04-25T12:09:08;10.23;;;2.63;;
54123;SDS011;55741;53.252;5.788;2023-04-25T12:11:42;14.68;;;2.97;;
54123;SDS011;55741;53.252;5.788;2023-04-25T12:14:12;12.57;;;2.55;;
54123;SDS011;55741;53.252;5.788;2023-04-25T12:16:49;15.35;;;2.50;;
54123;SDS011;55741;53.252;5.788;2023-04-25T12:19:16;13.70;;;2.95;;
54123;SDS011;55741;53.252;5.788;2023-04-25T12:21:45;8.77;;;2.20;;
54123;SDS011;55741;53.252;5.788;2023-04-25T12:26:45;13.02;;;2.60;;
54123;SDS011;55741;53.252;5.788;2023-04-25T12:29:33;13.20;;;3.00;;
54123;SDS011;55741;53.252;5.788;2023-04-25T12:32:00;11.27;;;2.50;;
54123;SDS011;55741;53.252;5.788;2023-04-25T12:34:29;10.52;;;1.98;;
54123;SDS011;55741;53.252;5.788;2023-04-25T12:36:56;10.02;;;2.58;;
54123;SDS011;55741;53.252;5.788;2023-04-25T12:39:23;8.52;;;2.05;;
54123;SDS011;55741;53.252;5.788;2023-04-25T12:41:53;7.05;;;2.08;;
54123;SDS011;55741;53.252;5.788;2023-04-25T12:44:19;9.85;;;2.47;;
54123;SDS011;55741;53.252;5.788;2023-04-25T12:46:46;11.32;;;2.42;;
54123;SDS011;55741;53.252;5.788;2023-04-25T12:49:12;7.97;;;2.65;;
54123;SDS011;55741;53.252;5.788;2023-04-25T12:51:38;12.88;;;3.78;;
54123;SDS011;55741;53.252;5.788;2023-04-25T12:54:05;15.30;;;3.05;;
54123;SDS011;55741;53.252;5.788;2023-04-25T12:56:32;10.48;;;2.50;;
54123;SDS011;55741;53.252;5.788;2023-04-25T12:58:58;11.60;;;2.40;;
54123;SDS011;55741;53.252;5.788;2023-04-25T13:01:24;13.20;;;2.55;;
54123;SDS011;55741;53.252;5.788;2023-04-25T13:03:51;9.77;;;2.53;;
54123;SDS011;55741;53.252;5.788;2023-04-25T13:06:18;12.10;;;2.50;;
54123;SDS011;55741;53.252;5.788;2023-04-25T13:08:45;13.02;;;2.45;;
54123;SDS011;55741;53.252;5.788;2023-04-25T13:11:12;14.23;;;2.63;;
54123;SDS011;55741;53.252;5.788;2023-04-25T13:13:40;10.80;;;2.35;;
54123;SDS011;55741;53.252;5.788;2023-04-25T13:16:06;15.80;;;3.00;;
54123;SDS011;55741;53.252;5.788;2023-04-25T13:18:32;14.05;;;3.30;;
54123;SDS011;55741;53.252;5.788;2023-04-25T13:20:59;14.75;;;3.28;;
54123;SDS011;55741;53.252;5.788;2023-04-25T13:23:25;10.90;;;2.70;;
54123;SDS011;55741;53.252;5.788;2023-04-25T13:25:52;9.85;;;2.28;;
54123;SDS011;55741;53.252;5.788;2023-04-25T13:28:18;6.65;;;1.77;;
54123;SDS011;55741;53.252;5.788;2023-04-25T13:30:45;9.40;;;2.13;;
54123;SDS011;55741;53.252;5.788;2023-04-25T13:33:12;10.30;;;2.70;;
54123;SDS011;55741;53.252;5.788;2023-04-25T13:35:38;10.68;;;3.20;;
54123;SDS011;55741;53.252;5.788;2023-04-25T13:38:04;10.20;;;2.10;;
54123;SDS011;55741;53.252;5.788;2023-04-25T13:40:30;9.52;;;1.92;;
54123;SDS011;55741;53.252;5.788;2023-04-25T13:42:57;8.65;;;1.90;;
54123;SDS011;55741;53.252;5.788;2023-04-25T13:45:24;11.13;;;2.28;;
54123;SDS011;55741;53.252;5.788;2023-04-25T13:47:50;11.57;;;2.08;;
54123;SDS011;55741;53.252;5.788;2023-04-25T13:50:16;12.23;;;2.13;;
54123;SDS011;55741;53.252;5.788;2023-04-25T13:52:42;8.73;;;1.90;;
54123;SDS011;55741;53.252;5.788;2023-04-25T13:55:08;13.45;;;3.05;;
54123;SDS011;55741;53.252;5.788;2023-04-25T13:57:35;9.18;;;1.77;;
54123;SDS011;55741;53.252;5.788;2023-04-25T14:00:01;15.18;;;2.38;;
54123;SDS011;55741;53.252;5.788;2023-04-25T14:02:34;15.73;;;2.67;;
54123;SDS011;55741;53.252;5.788;2023-04-25T14:05:00;10.88;;;2.72;;
54123;SDS011;55741;53.252;5.788;2023-04-25T14:07:27;18.88;;;3.03;;
54123;SDS011;55741;53.252;5.788;2023-04-25T14:09:53;15.82;;;3.80;;
54123;SDS011;55741;53.252;5.788;2023-04-25T14:12:20;14.48;;;2.60;;
54123;SDS011;55741;53.252;5.788;2023-04-25T14:14:46;13.68;;;3.08;;
54123;SDS011;55741;53.252;5.788;2023-04-25T14:17:11;12.25;;;3.17;;
54123;SDS011;55741;53.252;5.788;2023-04-25T14:19:37;15.23;;;3.13;;
54123;SDS011;55741;53.252;5.788;2023-04-25T14:22:08;12.98;;;2.63;;
54123;SDS011;55741;53.252;5.788;2023-04-25T14:24:34;12.35;;;2.30;;
54123;SDS011;55741;53.252;5.788;2023-04-25T14:27:00;6.47;;;1.90;;
54123;SDS011;55741;53.252;5.788;2023-04-25T14:29:26;10.98;;;2.50;;
54123;SDS011;55741;53.252;5.788;2023-04-25T14:31:52;13.60;;;2.67;;
54123;SDS011;55741;53.252;5.788;2023-04-25T14:34:19;10.02;;;2.25;;
54123;SDS011;55741;53.252;5.788;2023-04-25T14:36:45;7.93;;;1.95;;
54123;SDS011;55741;53.252;5.788;2023-04-25T14:39:11;8.15;;;2.33;;
54123;SDS011;55741;53.252;5.788;2023-04-25T14:41:37;16.27;;;2.70;;
54123;SDS011;55741;53.252;5.788;2023-04-25T14:44:03;13.43;;;2.42;;
54123;SDS011;55741;53.252;5.788;2023-04-25T14:46:29;14.57;;;4.00;;